createdAt,value
2022-08-26T00:03:51.632Z,86.18
2022-08-26T00:08:52.417Z,86.37
2022-08-26T00:13:53.115Z,86.47
2022-08-26T00:18:54.011Z,86.37
2022-08-26T00:23:54.748Z,86.47
2022-08-26T00:28:55.592Z,86.57
2022-08-26T00:33:56.322Z,86.98
2022-08-26T00:38:57.054Z,87.32
2022-08-26T00:43:57.784Z,87.82
2022-08-26T00:48:58.548Z,87.92
2022-08-26T00:53:59.299Z,88.32
2022-08-26T00:59:00.057Z,88.62
2022-08-26T01:04:00.796Z,88.71
2022-08-26T01:09:01.513Z,88.42
2022-08-26T01:14:02.209Z,88.52
2022-08-26T01:19:03.019Z,88.86
2022-08-26T01:24:03.585Z,89.36
2022-08-26T01:29:04.341Z,89.56
2022-08-26T01:34:12.036Z,89.36
2022-08-26T01:39:07.348Z,89.16
2022-08-26T01:44:06.355Z,89.26
2022-08-26T01:49:06.886Z,89.46
2022-08-26T01:54:07.456Z,89.76
2022-08-26T01:59:08.263Z,90.06
2022-08-26T02:04:08.934Z,90.36
2022-08-26T02:09:09.663Z,90.26
2022-08-26T02:14:10.493Z,90.56
2022-08-26T02:19:11.701Z,90.66
2022-08-26T02:24:12.883Z,90.91
2022-08-26T02:29:12.611Z,91.01
2022-08-26T02:34:13.549Z,91.31
2022-08-26T02:39:19.539Z,91.51
2022-08-26T02:44:16.014Z,92.21
2022-08-26T02:49:15.677Z,92.41
2022-08-26T02:54:16.213Z,92.55
2022-08-26T02:59:17.124Z,92.46
2022-08-26T03:04:17.885Z,92.55
2022-08-26T03:09:18.985Z,92.55
2022-08-26T03:14:19.172Z,92.66
2022-08-26T03:19:20.023Z,92.66
2022-08-26T03:24:20.836Z,92.46
2022-08-26T03:29:21.684Z,92.31
2022-08-26T03:34:22.430Z,92.01
2022-08-26T03:39:23.125Z,91.61
2022-08-26T03:44:23.847Z,91.71
2022-08-26T03:49:24.818Z,91.61
2022-08-26T03:54:25.559Z,91.81
2022-08-26T03:59:26.286Z,92.01
2022-08-26T04:04:26.886Z,92.31
2022-08-26T04:09:27.571Z,92.55
2022-08-26T04:14:28.280Z,92.41
2022-08-26T04:19:28.978Z,92.66
2022-08-26T04:24:29.779Z,92.85
2022-08-26T04:29:30.534Z,92.41
2022-08-26T04:34:31.257Z,92.11
2022-08-26T04:39:31.736Z,92.11
2022-08-26T04:44:32.400Z,92.41
2022-08-26T04:49:35.430Z,92.51
2022-08-26T04:54:33.941Z,92.31
2022-08-26T04:59:38.929Z,92.21
2022-08-26T05:04:35.644Z,91.61
2022-08-26T05:09:36.187Z,90.22
2022-08-26T05:14:36.907Z,88.78
2022-08-26T05:19:37.610Z,89.22
2022-08-26T05:24:39.216Z,89.62
2022-08-26T05:29:38.730Z,89.92
2022-08-26T05:34:39.403Z,89.32
2022-08-26T05:39:41.287Z,88.28
2022-08-26T05:44:53.927Z,87.63
2022-08-26T05:49:51.659Z,86.79
2022-08-26T05:54:42.891Z,85.75
2022-08-26T05:59:42.629Z,85.11
2022-08-26T06:04:43.152Z,85.21
2022-08-26T06:09:43.831Z,84.81
2022-08-26T06:14:44.641Z,84.81
2022-08-26T06:19:45.294Z,83.97
2022-08-26T06:24:46.199Z,83.33
2022-08-26T06:29:46.916Z,83.00
2022-08-26T06:34:47.650Z,82.39
2022-08-26T06:39:48.339Z,81.96
2022-08-26T06:44:48.896Z,81.06
2022-08-26T06:49:49.568Z,80.52
2022-08-26T06:54:50.216Z,80.29
2022-08-26T06:59:51.222Z,79.39
2022-08-26T07:04:51.611Z,79.25
2022-08-26T07:09:52.450Z,78.81
2022-08-26T07:14:52.922Z,78.42
2022-08-26T07:19:53.605Z,78.12
2022-08-26T07:24:54.217Z,77.58
2022-08-26T07:29:55.567Z,77.78
2022-08-26T07:35:02.688Z,77.15
2022-08-26T07:39:56.368Z,76.61
2022-08-26T07:44:57.135Z,75.68
2022-08-26T07:49:57.870Z,75.29
2022-08-26T07:54:58.525Z,74.35
2022-08-26T07:59:59.160Z,73.76
2022-08-26T08:04:59.975Z,73.53
2022-08-26T08:10:00.604Z,72.70
2022-08-26T08:15:01.276Z,71.67
2022-08-26T08:20:01.933Z,70.65
2022-08-26T08:25:02.988Z,69.46
2022-08-26T08:30:04.178Z,68.53
2022-08-26T08:35:10.820Z,68.40
2022-08-26T08:40:05.986Z,67.91
2022-08-26T08:45:05.172Z,67.74
2022-08-26T08:50:05.808Z,67.21
2022-08-26T08:55:11.077Z,68.66
2022-08-26T09:00:08.092Z,68.96
2022-08-26T09:05:07.851Z,69.26
2022-08-26T09:10:08.544Z,69.13
2022-08-26T09:15:09.398Z,67.47
2022-08-26T09:20:10.202Z,66.33
2022-08-26T09:25:11.048Z,65.14
2022-08-26T09:30:11.652Z,65.53
2022-08-26T09:35:12.012Z,63.85
2022-08-26T09:40:12.733Z,62.81
2022-08-26T09:45:13.380Z,61.82
2022-08-26T09:50:14.035Z,60.41
2022-08-26T09:55:15.569Z,59.69
2022-08-26T10:00:15.389Z,57.71
2022-08-26T10:05:16.033Z,58.11
2022-08-26T10:10:16.666Z,57.59
2022-08-26T10:15:17.358Z,56.74
2022-08-26T10:20:23.466Z,55.79
2022-08-26T10:25:19.609Z,55.58
2022-08-26T10:30:19.331Z,56.05
2022-08-26T10:35:20.213Z,56.67
2022-08-26T10:40:20.795Z,56.25
2022-08-26T10:45:21.338Z,55.41
2022-08-26T10:50:21.960Z,54.72
2022-08-26T10:55:22.571Z,54.10
2022-08-26T11:00:23.291Z,53.70
2022-08-26T11:05:24.168Z,55.31
2022-08-26T11:10:24.793Z,55.33
2022-08-26T11:15:26.603Z,55.85
2022-08-26T11:20:26.354Z,56.27
2022-08-26T11:25:30.795Z,57.09
2022-08-26T11:30:27.729Z,57.98
2022-08-26T11:35:28.365Z,58.18
2022-08-26T11:40:29.190Z,57.56
2022-08-26T11:45:29.967Z,57.98
2022-08-26T11:50:35.389Z,58.18
2022-08-26T11:55:31.513Z,57.39
2022-08-26T12:00:33.864Z,55.41
2022-08-26T12:05:33.179Z,59.61
2022-08-26T12:10:33.988Z,62.45
2022-08-26T12:15:34.841Z,65.58
2022-08-26T12:20:35.362Z,66.31
2022-08-26T12:25:36.243Z,68.07
2022-08-26T12:30:36.804Z,70.39
2022-08-26T12:35:37.531Z,71.32
2022-08-26T12:40:38.160Z,72.02
2022-08-26T12:45:38.907Z,75.37
2022-08-26T12:50:39.736Z,76.41
2022-08-26T12:55:40.459Z,76.41
2022-08-26T13:00:41.313Z,81.48
2022-08-26T13:05:42.104Z,85.01
2022-08-26T13:10:42.846Z,86.55
2022-08-26T13:15:43.563Z,88.49
2022-08-26T13:20:44.350Z,90.35
2022-08-26T13:25:44.984Z,94.09
2022-08-26T13:30:45.814Z,91.89
2022-08-26T13:35:53.708Z,91.79
2022-08-26T13:40:47.472Z,91.79
2022-08-26T13:45:48.196Z,91.83
2022-08-26T13:50:48.855Z,91.58
2022-08-26T13:55:49.557Z,92.32
2022-08-26T14:00:50.309Z,92.82
2022-08-26T14:05:51.016Z,92.82
2022-08-26T14:10:51.651Z,92.72
2022-08-26T14:15:52.402Z,92.27
2022-08-26T14:20:53.090Z,92.42
2022-08-26T14:25:53.823Z,92.93
2022-08-26T14:30:54.605Z,93.68
2022-08-26T14:35:55.338Z,93.38
2022-08-26T14:40:56.177Z,92.48
2022-08-26T14:45:56.966Z,91.03
2022-08-26T14:50:57.591Z,90.44
2022-08-26T14:55:58.413Z,91.93
2022-08-26T15:00:59.061Z,90.94
2022-08-26T15:06:00.604Z,90.03
2022-08-26T15:11:00.351Z,91.63
2022-08-26T15:16:01.128Z,91.67
2022-08-26T15:21:01.826Z,92.93
2022-08-26T15:26:02.478Z,94.07
2022-08-26T15:31:03.220Z,94.51
2022-08-26T15:36:03.981Z,95.42
2022-08-26T15:41:04.626Z,95.92
2022-08-26T15:46:05.347Z,96.77
2022-08-26T15:51:06.030Z,98.58
2022-08-26T15:56:06.797Z,97.58
2022-08-26T16:01:07.382Z,95.37
2022-08-26T16:06:08.087Z,96.08
2022-08-26T16:11:08.819Z,96.52
2022-08-26T16:16:09.581Z,96.12
2022-08-26T16:21:13.639Z,95.82
2022-08-26T16:26:11.229Z,96.06
2022-08-26T16:31:11.957Z,97.32
2022-08-26T16:36:12.638Z,97.02
2022-08-26T16:41:13.342Z,97.67
2022-08-26T16:46:13.990Z,97.67
2022-08-26T16:51:14.661Z,96.77
2022-08-26T16:56:15.373Z,96.06
2022-08-26T17:01:16.075Z,96.56
2022-08-26T17:06:16.746Z,97.27
2022-08-26T17:11:17.419Z,94.66
2022-08-26T17:16:18.165Z,95.01
2022-08-26T17:21:18.835Z,95.32
2022-08-26T17:26:19.534Z,96.82
2022-08-26T17:31:20.304Z,95.01
2022-08-26T17:36:20.986Z,95.82
2022-08-26T17:41:21.651Z,94.31
2022-08-26T17:46:22.383Z,95.72
2022-08-26T17:51:23.079Z,96.72
2022-08-26T17:56:23.750Z,97.72
2022-08-26T18:01:24.467Z,96.22
2022-08-26T18:06:25.086Z,94.66
2022-08-26T18:11:25.797Z,96.17
2022-08-26T18:16:26.481Z,95.97
2022-08-26T18:21:27.224Z,95.62
2022-08-26T18:26:27.882Z,96.12
2022-08-26T18:31:28.614Z,95.92
2022-08-26T18:36:29.224Z,96.42
2022-08-26T18:41:29.952Z,97.06
2022-08-26T18:46:30.737Z,97.06
2022-08-26T18:51:31.464Z,96.87
2022-08-26T18:56:32.205Z,97.17
2022-08-26T19:01:33.120Z,96.67
2022-08-26T19:06:33.402Z,97.37
2022-08-26T19:11:38.374Z,98.07
2022-08-26T19:16:35.864Z,96.17
2022-08-26T19:21:35.533Z,96.97
2022-08-26T19:26:36.274Z,97.27
2022-08-26T19:31:37.012Z,96.26
2022-08-26T19:36:38.787Z,97.06
2022-08-26T19:41:38.303Z,96.97
2022-08-26T19:51:39.675Z,96.77
2022-08-26T19:56:40.400Z,97.17
2022-08-26T20:01:41.189Z,96.77
2022-08-26T20:06:41.559Z,97.11
2022-08-26T20:11:42.409Z,97.11
2022-08-26T20:16:50.140Z,97.11
2022-08-26T20:21:43.931Z,97.61
2022-08-26T20:26:44.699Z,98.22
2022-08-26T20:31:45.398Z,97.61
2022-08-26T20:36:46.104Z,96.91
2022-08-26T20:41:46.854Z,97.02
2022-08-26T20:46:47.574Z,96.86
2022-08-26T20:51:48.291Z,97.96
2022-08-26T20:56:49.221Z,98.07
2022-08-26T21:01:50.021Z,97.31
2022-08-26T21:06:52.180Z,98.32
2022-08-26T21:11:52.968Z,97.72
2022-08-26T21:16:51.938Z,96.51
2022-08-26T21:21:52.657Z,97.02
2022-08-26T21:26:53.352Z,97.61
2022-08-26T21:31:54.162Z,98.97
2022-08-26T21:36:54.844Z,99.27
2022-08-26T21:41:55.819Z,99.16
2022-08-26T21:46:56.329Z,98.16
2022-08-26T21:51:56.711Z,98.41
2022-08-26T21:56:57.478Z,97.86
2022-08-26T22:01:58.255Z,97.46
2022-08-26T22:06:58.953Z,97.76
2022-08-26T22:11:59.665Z,97.56
2022-08-26T22:17:00.484Z,97.26
2022-08-26T22:22:01.186Z,97.46
2022-08-26T22:27:01.897Z,97.66
2022-08-26T22:32:02.634Z,98.66
2022-08-26T22:37:03.393Z,99.07
2022-08-26T22:42:04.156Z,98.97
2022-08-26T22:47:04.881Z,97.36
2022-08-26T22:52:05.687Z,97.56
2022-08-26T22:57:06.406Z,98.01
2022-08-26T23:02:07.123Z,98.51
2022-08-26T23:07:07.723Z,98.81
2022-08-26T23:12:08.490Z,98.86
2022-08-26T23:17:09.251Z,99.56
2022-08-26T23:22:10.514Z,99.99
2022-08-26T23:27:10.996Z,99.99
2022-08-26T23:32:11.349Z,99.99
2022-08-26T23:37:12.155Z,99.99
2022-08-26T23:42:12.863Z,99.99
2022-08-26T23:47:13.626Z,99.87
2022-08-26T23:52:14.358Z,99.87
2022-08-26T23:57:15.036Z,99.99
